Time;durP1;ratioP1;P1;durP2;ratioP2;P2;SDS_P1;SDS_P2;PMS_P1;PMS_P2;Temp;Humidity;BMP_temperature;BMP_pressure;BME280_temperature;BME280_humidity;BME280_pressure;Samples;Min_cycle;Max_cycle;Signal;HPM_P1;HPM_P2
2023/08/02 00:00:28;;;;;;;;;2.00;2.00;;;;;17.36;100.00;99996.72;5085907;27;66021;-45
2023/08/02 00:02:54;;;;;;;;;2.00;2.00;;;;;17.40;100.00;99994.63;5086974;27;45409;-45
2023/08/02 00:05:19;;;;;;;;;3.00;2.00;;;;;17.36;100.00;99988.66;5089987;27;45450;-45
2023/08/02 00:07:44;;;;;;;;;1.00;1.00;;;;;17.37;100.00;99987.69;5090611;27;65254;-46
2023/08/02 00:10:10;;;;;;;;;1.67;1.67;;;;;17.33;100.00;99973.66;5091639;27;75747;-45
2023/08/02 00:12:35;;;;;;;;;1.00;1.00;;;;;17.33;100.00;99965.59;5091182;27;68055;-46
2023/08/02 00:15:00;;;;;;;;;2.00;2.00;;;;;17.32;100.00;99963.91;5086626;27;67003;-49
2023/08/02 00:17:26;;;;;;;;;1.33;1.33;;;;;17.41;100.00;99962.22;5094744;27;65125;-46
2023/08/02 00:19:51;;;;;;;;;0.00;0.00;;;;;17.39;100.00;99953.47;5073136;27;69569;-49
2023/08/02 00:22:16;;;;;;;;;3.00;1.25;;;;;17.35;100.00;99949.34;5084425;27;45479;-46
2023/08/02 00:24:42;;;;;;;;;2.00;1.00;;;;;17.33;100.00;99941.44;5086641;27;60379;-45
2023/08/02 00:27:07;;;;;;;;;2.00;2.00;;;;;17.33;100.00;99936.03;5085487;27;67206;-47
2023/08/02 00:29:32;;;;;;;;;1.00;0.00;;;;;17.35;100.00;99936.78;5084112;27;74702;-48
2023/08/02 00:31:57;;;;;;;;;2.33;0.67;;;;;17.36;100.00;99924.16;5085791;27;70735;-50
2023/08/02 00:34:23;;;;;;;;;0.00;0.00;;;;;17.38;100.00;99918.66;5087226;27;64672;-48
2023/08/02 00:36:48;;;;;;;;;0.00;0.00;;;;;17.39;100.00;99909.59;5085506;27;45509;-46
2023/08/02 00:39:14;;;;;;;;;0.00;0.00;;;;;17.39;100.00;99888.97;5089650;27;71751;-49
2023/08/02 00:41:39;;;;;;;;;0.00;0.00;;;;;17.36;100.00;99889.22;5088592;27;45385;-48
2023/08/02 00:44:04;;;;;;;;;0.00;0.00;;;;;17.35;100.00;99876.78;5070626;27;46512;-46
2023/08/02 00:46:30;;;;;;;;;1.00;0.00;;;;;17.36;100.00;99868.59;5067219;27;62201;-50
2023/08/02 00:48:55;;;;;;;;;0.33;0.00;;;;;17.35;100.00;99853.44;5085197;27;66934;-45
2023/08/02 00:51:20;;;;;;;;;0.00;0.00;;;;;17.33;100.00;99844.66;5097648;27;71328;-46
2023/08/02 00:53:46;;;;;;;;;0.00;0.00;;;;;17.40;100.00;99834.19;5093753;27;45258;-45
2023/08/02 00:56:14;;;;;;;;;0.00;0.00;;;;;17.44;100.00;99832.94;5065889;28;63796;-45
2023/08/02 00:58:39;;;;;;;;;0.00;0.00;;;;;17.39;100.00;99823.59;5088040;27;46392;-45
2023/08/02 01:01:07;;;;;;;;;0.00;0.00;;;;;17.32;100.00;99817.94;5086866;27;47003;-45
2023/08/02 01:03:41;;;;;;;;;0.00;0.00;;;;;17.32;100.00;99815.25;5095779;27;45498;-45
2023/08/02 01:06:19;;;;;;;;;0.00;0.00;;;;;17.35;100.00;99801.53;5055631;27;45521;-47
2023/08/02 01:08:49;;;;;;;;;0.00;0.00;;;;;17.39;100.00;99794.03;5070940;27;46177;-46
2023/08/02 01:11:34;;;;;;;;;0.00;0.00;;;;;17.42;100.00;99777.63;5081391;27;45485;-47
2023/08/02 01:14:04;;;;;;;;;0.00;0.00;;;;;17.30;100.00;99780.47;5092230;27;45357;-48
2023/08/02 01:16:30;;;;;;;;;0.00;0.00;;;;;17.27;100.00;99771.84;5073055;27;45775;-46
2023/08/02 01:18:55;;;;;;;;;0.00;0.00;;;;;17.24;100.00;99769.47;5068169;27;54336;-45
2023/08/02 01:21:20;;;;;;;;;0.00;0.00;;;;;17.23;100.00;99765.06;5082578;27;72362;-45
2023/08/02 01:23:45;;;;;;;;;0.00;0.00;;;;;17.19;100.00;99759.13;5088515;27;56690;-45
2023/08/02 01:26:11;;;;;;;;;0.00;0.00;;;;;17.13;100.00;99747.13;5083788;27;69238;-47
2023/08/02 01:28:39;;;;;;;;;0.67;0.00;;;;;17.07;100.00;99736.97;5074678;27;46025;-45
2023/08/02 01:31:05;;;;;;;;;0.00;0.00;;;;;16.99;100.00;99726.94;5079265;27;45216;-46
2023/08/02 01:33:42;;;;;;;;;1.00;0.00;;;;;16.96;100.00;99712.94;5092694;27;45638;-45
2023/08/02 01:36:08;;;;;;;;;0.00;0.00;;;;;17.05;100.00;99714.75;5088016;27;45498;-45
2023/08/02 01:38:33;;;;;;;;;1.00;0.00;;;;;17.15;100.00;99714.75;5085653;27;60594;-45
2023/08/02 01:40:58;;;;;;;;;0.00;0.00;;;;;17.06;100.00;99710.25;5067664;28;54624;-45
2023/08/02 01:43:24;;;;;;;;;0.00;0.00;;;;;17.09;100.00;99712.63;5091157;27;67668;-46
2023/08/02 01:45:49;;;;;;;;;0.00;0.00;;;;;17.08;100.00;99701.06;5092281;27;45556;-46
2023/08/02 01:48:14;;;;;;;;;1.00;0.00;;;;;17.09;100.00;99705.44;5088954;27;63134;-44
2023/08/02 01:50:40;;;;;;;;;0.00;0.00;;;;;17.09;100.00;99697.38;5085953;27;65535;-44
2023/08/02 01:53:05;;;;;;;;;0.00;0.00;;;;;17.14;100.00;99699.63;5088942;27;45526;-45
2023/08/02 01:55:30;;;;;;;;;0.00;0.00;;;;;17.19;100.00;99710.78;5093442;27;69808;-46
2023/08/02 01:57:56;;;;;;;;;0.00;0.00;;;;;17.23;100.00;99696.03;5091521;27;45331;-50
2023/08/02 02:00:21;;;;;;;;;0.00;0.00;;;;;17.32;100.00;99694.31;5085425;27;45681;-46
2023/08/02 02:02:47;;;;;;;;;0.00;0.00;;;;;17.29;100.00;99690.09;5089767;27;66535;-45
2023/08/02 02:05:12;;;;;;;;;0.00;0.00;;;;;17.28;100.00;99683.03;5087501;27;45398;-47
2023/08/02 02:07:37;;;;;;;;;1.00;0.00;;;;;17.24;100.00;99686.16;5091604;27;45413;-45
2023/08/02 02:10:03;;;;;;;;;0.00;0.00;;;;;17.15;100.00;99671.75;5093631;27;67543;-45
2023/08/02 02:12:28;;;;;;;;;0.00;0.00;;;;;17.15;100.00;99669.06;5087059;27;45381;-46
2023/08/02 02:14:53;;;;;;;;;0.00;0.00;;;;;17.16;100.00;99658.19;5093396;27;51946;-46
2023/08/02 02:17:19;;;;;;;;;0.00;0.00;;;;;17.16;100.00;99654.66;5076896;27;45915;-47
2023/08/02 02:19:44;;;;;;;;;0.00;0.00;;;;;17.13;100.00;99644.19;5096827;27;62957;-46
2023/08/02 02:22:10;;;;;;;;;0.00;0.00;;;;;17.14;100.00;99648.56;5092282;27;47964;-47
2023/08/02 02:24:35;;;;;;;;;0.00;0.00;;;;;17.11;100.00;99643.50;5088031;27;45371;-45
2023/08/02 02:27:01;;;;;;;;;0.00;0.00;;;;;17.16;100.00;99638.53;5077897;27;73987;-48
2023/08/02 02:29:26;;;;;;;;;0.00;0.00;;;;;17.12;100.00;99632.59;5081004;27;69504;-46
2023/08/02 02:31:51;;;;;;;;;0.00;0.00;;;;;17.11;100.00;99622.00;5086816;27;45922;-46
2023/08/02 02:34:17;;;;;;;;;0.00;0.00;;;;;17.20;100.00;99611.22;5089904;27;45434;-46
2023/08/02 02:36:44;;;;;;;;;0.67;0.00;;;;;17.49;100.00;99604.00;5086398;27;45451;-46
2023/08/02 02:39:09;;;;;;;;;0.00;0.00;;;;;17.56;100.00;99583.59;5082144;27;45383;-47
2023/08/02 02:41:35;;;;;;;;;0.00;0.00;;;;;17.59;100.00;99582.44;5080648;27;66158;-47
2023/08/02 02:44:00;;;;;;;;;0.00;0.00;;;;;17.64;100.00;99572.09;5085923;27;67819;-46
2023/08/02 02:46:25;;;;;;;;;0.00;0.00;;;;;17.67;100.00;99569.06;5092061;27;69763;-47
2023/08/02 02:48:51;;;;;;;;;0.00;0.00;;;;;17.67;100.00;99567.22;5093095;27;72085;-46
2023/08/02 02:51:16;;;;;;;;;0.33;0.00;;;;;17.64;100.00;99555.94;5097361;27;62578;-46
2023/08/02 02:53:41;;;;;;;;;0.33;0.00;;;;;17.61;100.00;99549.03;5091089;27;62147;-46
2023/08/02 02:56:07;;;;;;;;;0.00;0.00;;;;;17.65;100.00;99541.47;5095357;27;45631;-48
2023/08/02 02:58:32;;;;;;;;;0.00;0.00;;;;;17.69;100.00;99535.66;5089453;27;45525;-48
2023/08/02 03:00:57;;;;;;;;;1.00;0.00;;;;;17.73;100.00;99529.97;5083463;27;62845;-46
2023/08/02 03:03:23;;;;;;;;;0.00;0.00;;;;;17.73;100.00;99522.75;5085179;27;45232;-45
2023/08/02 03:05:48;;;;;;;;;0.67;0.00;;;;;17.77;100.00;99517.91;5094596;27;46296;-46
2023/08/02 03:08:14;;;;;;;;;0.00;0.00;;;;;17.79;100.00;99508.69;5091099;27;45394;-49
2023/08/02 03:10:39;;;;;;;;;0.00;0.00;;;;;17.77;100.00;99501.75;5089798;27;46759;-46
2023/08/02 03:13:04;;;;;;;;;0.75;0.00;;;;;17.81;100.00;99498.63;5085907;27;55540;-47
2023/08/02 03:15:30;;;;;;;;;0.00;0.00;;;;;17.83;100.00;99498.47;5083430;27;55776;-48
2023/08/02 03:17:55;;;;;;;;;0.00;0.00;;;;;17.88;100.00;99489.94;5090107;27;63935;-48
2023/08/02 03:20:20;;;;;;;;;1.00;0.00;;;;;17.92;100.00;99484.06;5084150;27;63876;-47
2023/08/02 03:22:46;;;;;;;;;0.00;0.00;;;;;17.95;100.00;99478.44;5083598;27;45430;-46
2023/08/02 03:25:11;;;;;;;;;0.00;0.00;;;;;17.97;100.00;99481.78;5083829;27;56446;-50
2023/08/02 03:27:36;;;;;;;;;0.00;0.00;;;;;17.96;100.00;99476.56;5092769;27;63542;-45
2023/08/02 03:30:03;;;;;;;;;0.00;0.00;;;;;18.00;100.00;99475.25;5088925;27;45354;-49
2023/08/02 03:32:29;;;;;;;;;0.00;0.00;;;;;18.01;100.00;99460.81;5093576;27;45516;-46
2023/08/02 03:34:54;;;;;;;;;0.00;0.00;;;;;18.01;100.00;99461.63;5089181;27;71321;-46
2023/08/02 03:37:20;;;;;;;;;0.00;0.00;;;;;18.01;100.00;99455.44;5081687;27;45513;-49
2023/08/02 03:39:45;;;;;;;;;0.00;0.00;;;;;18.06;100.00;99460.34;5096104;27;45591;-45
2023/08/02 03:42:10;;;;;;;;;0.00;0.00;;;;;18.12;100.00;99460.56;5086445;27;63072;-46
2023/08/02 03:44:35;;;;;;;;;0.67;0.00;;;;;18.18;100.00;99448.31;5085757;27;72707;-46
2023/08/02 03:47:01;;;;;;;;;0.00;0.00;;;;;18.22;100.00;99436.22;5094850;27;47030;-47
2023/08/02 03:49:26;;;;;;;;;0.00;0.00;;;;;18.25;100.00;99446.69;5089360;27;64267;-46
2023/08/02 03:51:51;;;;;;;;;0.00;0.00;;;;;18.27;100.00;99443.81;5090873;27;65042;-47
2023/08/02 03:54:17;;;;;;;;;0.00;0.00;;;;;18.30;100.00;99446.19;5097164;27;61537;-46
2023/08/02 03:56:42;;;;;;;;;0.00;0.00;;;;;18.32;100.00;99434.25;5093460;27;45656;-46
2023/08/02 03:59:07;;;;;;;;;0.00;0.00;;;;;18.37;100.00;99433.78;5089785;27;67055;-45
2023/08/02 04:01:33;;;;;;;;;0.00;0.00;;;;;18.37;100.00;99436.47;5071723;27;65070;-50
2023/08/02 04:03:58;;;;;;;;;0.00;0.00;;;;;18.39;100.00;99434.47;5080814;27;45926;-47
2023/08/02 04:06:23;;;;;;;;;0.00;0.00;;;;;18.43;100.00;99427.75;5094040;27;45455;-47
2023/08/02 04:08:49;;;;;;;;;0.00;0.00;;;;;18.49;100.00;99426.28;5091533;27;45441;-47
2023/08/02 04:11:14;;;;;;;;;0.00;0.00;;;;;18.50;100.00;99418.03;5078904;27;58522;-45
2023/08/02 04:13:39;;;;;;;;;0.00;0.00;;;;;18.53;100.00;99422.25;5092869;27;71900;-47
2023/08/02 04:16:05;;;;;;;;;0.00;0.00;;;;;18.58;100.00;99421.78;5089462;27;50716;-45
2023/08/02 04:18:30;;;;;;;;;0.00;0.00;;;;;18.62;100.00;99420.44;5092732;27;46208;-45
2023/08/02 04:20:55;;;;;;;;;0.00;0.00;;;;;18.65;100.00;99415.56;5097148;27;71019;-46
2023/08/02 04:23:21;;;;;;;;;0.00;0.00;;;;;18.72;100.00;99409.53;5100692;27;45388;-46
2023/08/02 04:25:46;;;;;;;;;0.00;0.00;;;;;18.75;100.00;99414.59;5089621;27;65445;-45
2023/08/02 04:28:11;;;;;;;;;0.00;0.00;;;;;18.79;100.00;99406.00;5084520;27;45453;-46
2023/08/02 04:30:37;;;;;;;;;1.00;0.00;;;;;18.81;100.00;99398.63;5087743;27;66390;-46
2023/08/02 04:33:02;;;;;;;;;0.00;0.00;;;;;18.85;100.00;99402.66;5087070;27;45339;-48
2023/08/02 04:35:28;;;;;;;;;0.00;0.00;;;;;18.90;100.00;99399.50;5093391;27;48493;-46
2023/08/02 04:37:54;;;;;;;;;0.00;0.00;;;;;18.93;100.00;99392.94;5089986;27;45494;-46
2023/08/02 04:40:19;;;;;;;;;0.00;0.00;;;;;18.97;100.00;99397.00;5090669;27;45541;-45
2023/08/02 04:42:47;;;;;;;;;0.00;0.00;;;;;18.98;100.00;99391.47;5094796;27;67257;-49
2023/08/02 04:45:12;;;;;;;;;0.00;0.00;;;;;19.00;100.00;99393.97;5097465;27;45465;-46
2023/08/02 04:47:38;;;;;;;;;0.00;0.00;;;;;19.01;100.00;99384.91;5092434;27;45406;-46
2023/08/02 04:50:03;;;;;;;;;1.00;0.00;;;;;19.02;100.00;99381.19;5088430;27;69159;-46
2023/08/02 04:52:28;;;;;;;;;0.00;0.00;;;;;19.05;100.00;99382.72;5090718;27;45406;-50
2023/08/02 04:54:54;;;;;;;;;0.00;0.00;;;;;19.09;100.00;99384.06;5092113;27;64412;-48
2023/08/02 04:57:19;;;;;;;;;0.00;0.00;;;;;19.13;100.00;99369.25;5088358;27;45416;-46
2023/08/02 04:59:45;;;;;;;;;0.00;0.00;;;;;19.16;100.00;99374.28;5088009;27;58820;-45
2023/08/02 05:02:10;;;;;;;;;0.00;0.00;;;;;19.20;100.00;99372.13;5083135;27;69317;-46
2023/08/02 05:04:35;;;;;;;;;0.00;0.00;;;;;19.23;100.00;99374.47;5076209;27;72154;-47
2023/08/02 05:07:01;;;;;;;;;0.00;0.00;;;;;19.24;100.00;99368.94;5076001;27;45445;-47
2023/08/02 05:09:26;;;;;;;;;0.00;0.00;;;;;19.26;100.00;99358.81;5090539;27;63084;-48
2023/08/02 05:11:51;;;;;;;;;0.00;0.00;;;;;19.28;100.00;99355.94;5080638;27;51362;-46
2023/08/02 05:14:18;;;;;;;;;0.00;0.00;;;;;19.30;100.00;99353.94;5095015;27;54631;-46
2023/08/02 05:16:43;;;;;;;;;0.00;0.00;;;;;19.31;100.00;99356.44;5092739;27;45511;-46
2023/08/02 05:19:08;;;;;;;;;0.00;0.00;;;;;19.32;100.00;99350.06;5086395;27;68168;-46
2023/08/02 05:21:34;;;;;;;;;0.00;0.00;;;;;19.34;100.00;99345.31;5095488;27;47899;-45
2023/08/02 05:23:59;;;;;;;;;1.00;0.00;;;;;19.37;100.00;99337.91;5066921;28;45545;-47
2023/08/02 05:26:24;;;;;;;;;0.00;0.00;;;;;19.36;100.00;99336.22;5089456;27;65561;-47
2023/08/02 05:28:50;;;;;;;;;0.00;0.00;;;;;19.34;100.00;99348.00;5092219;27;45333;-48
2023/08/02 05:31:15;;;;;;;;;0.00;0.00;;;;;19.31;100.00;99337.56;5069651;28;67587;-46
2023/08/02 05:33:40;;;;;;;;;0.00;0.00;;;;;19.33;100.00;99332.88;5086998;27;51935;-45
2023/08/02 05:36:06;;;;;;;;;0.00;0.00;;;;;19.37;100.00;99327.13;5089069;27;61368;-49
2023/08/02 05:38:33;;;;;;;;;0.00;0.00;;;;;19.39;100.00;99328.66;5089270;27;45422;-49
2023/08/02 05:41:03;;;;;;;;;0.00;0.00;;;;;19.42;100.00;99322.06;5089023;27;45484;-47
2023/08/02 05:43:29;;;;;;;;;0.00;0.00;;;;;19.44;100.00;99311.97;5091820;27;45647;-46
2023/08/02 05:45:54;;;;;;;;;0.00;0.00;;;;;19.48;100.00;99318.72;5069752;27;45398;-49
2023/08/02 05:48:19;;;;;;;;;0.00;0.00;;;;;19.49;100.00;99326.63;5096811;27;45460;-47
2023/08/02 05:50:45;;;;;;;;;0.00;0.00;;;;;19.51;100.00;99324.56;5097618;27;46058;-45
2023/08/02 05:53:10;;;;;;;;;0.00;0.00;;;;;19.54;100.00;99320.69;5089769;27;72379;-47
2023/08/02 05:55:35;;;;;;;;;0.00;0.00;;;;;19.54;100.00;99309.91;5081321;27;52964;-47
2023/08/02 05:58:01;;;;;;;;;0.00;0.00;;;;;19.54;100.00;99317.16;5082064;27;63409;-52
2023/08/02 06:00:26;;;;;;;;;0.00;0.00;;;;;19.56;100.00;99310.59;5081272;27;74335;-46
2023/08/02 06:02:51;;;;;;;;;0.00;0.00;;;;;19.59;100.00;99306.72;5084481;27;45457;-45
2023/08/02 06:05:17;;;;;;;;;0.00;0.00;;;;;19.63;100.00;99306.22;5088929;27;66400;-46
2023/08/02 06:07:42;;;;;;;;;0.00;0.00;;;;;19.65;100.00;99288.00;5082636;27;45413;-48
2023/08/02 06:10:08;;;;;;;;;0.00;0.00;;;;;19.67;100.00;99302.16;5086346;27;46212;-45
2023/08/02 06:12:33;;;;;;;;;0.00;0.00;;;;;19.73;100.00;99294.38;5093432;27;45496;-48
2023/08/02 06:14:58;;;;;;;;;0.00;0.00;;;;;19.76;100.00;99288.63;5082369;27;56994;-47
2023/08/02 06:17:26;;;;;;;;;0.00;0.00;;;;;19.81;100.00;99284.44;5072371;27;66139;-48
2023/08/02 06:19:51;;;;;;;;;0.00;0.00;;;;;19.85;100.00;99286.78;5081111;27;46176;-49
2023/08/02 06:22:17;;;;;;;;;0.00;0.00;;;;;19.85;100.00;99287.63;5063762;27;45433;-51
2023/08/02 06:24:43;;;;;;;;;0.00;0.00;;;;;19.82;100.00;99272.63;5082808;27;45394;-47
2023/08/02 06:27:09;;;;;;;;;0.00;0.00;;;;;19.80;100.00;99252.19;5065444;27;45288;-48
2023/08/02 06:29:34;;;;;;;;;0.00;0.00;;;;;19.81;100.00;99254.75;5084621;27;45529;-46
2023/08/02 06:31:59;;;;;;;;;0.00;0.00;;;;;19.85;100.00;99255.25;5062992;27;71907;-46
2023/08/02 06:34:25;;;;;;;;;0.00;0.00;;;;;19.91;100.00;99269.91;5083280;27;66409;-46
2023/08/02 06:36:50;;;;;;;;;0.00;0.00;;;;;19.94;100.00;99265.00;5082150;27;65272;-48
2023/08/02 06:39:16;;;;;;;;;0.00;0.00;;;;;19.98;100.00;99249.31;5087006;27;56053;-48
2023/08/02 06:41:41;;;;;;;;;0.00;0.00;;;;;20.03;100.00;99267.69;5076216;27;45512;-47
2023/08/02 06:44:07;;;;;;;;;0.00;0.00;;;;;20.10;100.00;99256.00;5077789;27;45520;-48
2023/08/02 06:46:33;;;;;;;;;0.00;0.00;;;;;20.15;100.00;99256.31;5087902;27;67086;-48
2023/08/02 06:48:58;;;;;;;;;0.00;0.00;;;;;20.20;100.00;99249.53;5072272;27;45534;-47
2023/08/02 06:51:24;;;;;;;;;0.00;0.00;;;;;20.22;100.00;99244.78;5090423;27;45691;-50
2023/08/02 06:53:49;;;;;;;;;0.00;0.00;;;;;20.25;100.00;99241.75;5074622;27;53809;-50
2023/08/02 06:56:16;;;;;;;;;0.00;0.00;;;;;20.30;100.00;99234.81;5082551;27;45714;-50
2023/08/02 06:58:42;;;;;;;;;0.00;0.00;;;;;20.34;100.00;99240.69;5089321;27;46403;-50
2023/08/02 07:01:18;;;;;;;;;0.00;0.00;;;;;20.38;100.00;99236.63;5087736;27;45464;-50
2023/08/02 07:03:44;;;;;;;;;0.00;0.00;;;;;20.42;100.00;99240.63;5091084;27;45233;-47
2023/08/02 07:06:20;;;;;;;;;0.00;0.00;;;;;20.50;100.00;99237.03;5087859;27;45798;-51
2023/08/02 07:08:46;;;;;;;;;0.00;0.00;;;;;20.58;100.00;99246.94;5068633;28;45412;-51
2023/08/02 07:11:12;;;;;;;;;0.00;0.00;;;;;20.70;100.00;99245.53;5078271;27;45331;-50
2023/08/02 07:13:38;;;;;;;;;1.25;0.00;;;;;20.88;100.00;99237.13;5080716;27;45373;-50
2023/08/02 07:16:04;;;;;;;;;0.00;0.00;;;;;20.99;100.00;99225.06;5078844;27;45543;-51
2023/08/02 07:18:29;;;;;;;;;0.00;0.00;;;;;21.13;100.00;99229.66;5079175;27;45577;-49
2023/08/02 07:20:55;;;;;;;;;0.00;0.00;;;;;21.25;100.00;99224.63;5079296;27;45346;-47
2023/08/02 07:23:22;;;;;;;;;0.00;0.00;;;;;21.40;100.00;99218.41;5078911;27;60749;-50
2023/08/02 07:25:47;;;;;;;;;1.00;0.00;;;;;21.46;100.00;99223.91;5090901;27;45668;-48
2023/08/02 07:28:13;;;;;;;;;0.00;0.00;;;;;21.50;100.00;99218.97;5096670;27;54361;-46
2023/08/02 07:30:38;;;;;;;;;0.00;0.00;;;;;21.52;100.00;99227.72;5087144;27;45460;-49
2023/08/02 07:33:03;;;;;;;;;0.00;0.00;;;;;21.75;100.00;99229.53;5089181;27;45470;-51
2023/08/02 07:35:29;;;;;;;;;0.00;0.00;;;;;23.86;100.00;99215.63;5068833;27;45532;-50
2023/08/02 07:37:54;;;;;;;;;0.00;0.00;;;;;28.26;100.00;99219.78;5082032;27;75585;-47
2023/08/02 07:40:20;;;;;;;;;1.00;0.00;;;;;31.93;100.00;99231.63;5084172;27;45580;-46
2023/08/02 07:42:45;;;;;;;;;0.00;0.00;;;;;32.37;100.00;99236.28;5095824;27;45406;-49
2023/08/02 07:45:11;;;;;;;;;0.00;0.00;;;;;31.74;100.00;99222.88;5084938;27;61452;-48
2023/08/02 07:47:37;;;;;;;;;0.00;0.00;;;;;30.00;98.35;99225.09;5079703;27;45497;-48
2023/08/02 07:50:04;;;;;;;;;0.00;0.00;;;;;28.55;100.00;99229.00;5088023;27;45444;-50
2023/08/02 07:52:29;;;;;;;;;1.25;0.00;;;;;27.60;100.00;99216.75;5064183;27;45646;-46
2023/08/02 07:54:55;;;;;;;;;0.00;0.00;;;;;27.23;100.00;99217.50;5084745;27;68750;-48
2023/08/02 07:57:22;;;;;;;;;0.00;0.00;;;;;27.06;100.00;99212.63;5089266;27;46092;-49
2023/08/02 07:59:47;;;;;;;;;0.00;0.00;;;;;27.62;100.00;99211.91;5070242;27;45400;-46
2023/08/02 08:02:14;;;;;;;;;0.00;0.00;;;;;28.03;100.00;99221.31;5087087;27;45437;-47
2023/08/02 08:04:40;;;;;;;;;0.00;0.00;;;;;28.67;100.00;99218.16;5092480;27;45425;-45
2023/08/02 08:07:05;;;;;;;;;0.00;0.00;;;;;28.84;100.00;99216.41;5086706;27;54552;-49
2023/08/02 08:09:30;;;;;;;;;0.00;0.00;;;;;28.27;100.00;99211.34;5088444;27;45297;-49
2023/08/02 08:11:56;;;;;;;;;0.00;0.00;;;;;27.84;100.00;99237.69;5088696;27;45433;-49
2023/08/02 08:14:21;;;;;;;;;0.00;0.00;;;;;27.49;100.00;99235.53;5084217;27;45443;-50
2023/08/02 08:16:47;;;;;;;;;0.00;0.00;;;;;28.12;100.00;99230.88;5079233;27;46889;-48
2023/08/02 08:19:14;;;;;;;;;0.00;0.00;;;;;28.03;100.00;99222.16;5081901;27;45540;-48
2023/08/02 08:21:39;;;;;;;;;0.00;0.00;;;;;28.16;100.00;99212.09;5071100;27;45448;-48
2023/08/02 08:24:04;;;;;;;;;0.00;0.00;;;;;30.71;100.00;99210.28;5086825;27;67501;-46
2023/08/02 08:26:30;;;;;;;;;1.00;0.00;;;;;31.50;100.00;99212.91;5089773;27;61057;-49
2023/08/02 08:28:56;;;;;;;;;0.00;0.00;;;;;30.98;89.35;99211.28;5084418;27;45624;-47
2023/08/02 08:31:21;;;;;;;;;0.75;0.00;;;;;29.80;83.50;99214.50;5083203;27;65886;-48
2023/08/02 08:33:46;;;;;;;;;0.00;0.00;;;;;28.57;92.45;99223.34;5088196;27;45584;-50
2023/08/02 08:36:13;;;;;;;;;0.00;0.00;;;;;27.69;100.00;99220.84;5048200;27;61355;-48
2023/08/02 08:38:38;;;;;;;;;0.00;0.00;;;;;29.76;100.00;99214.16;5068463;27;45494;-47
2023/08/02 08:41:03;;;;;;;;;0.00;0.00;;;;;32.97;100.00;99193.94;5087089;27;54449;-47
2023/08/02 08:43:29;;;;;;;;;0.00;0.00;;;;;35.28;96.28;99192.22;5092025;27;63907;-47
2023/08/02 08:45:56;;;;;;;;;1.00;0.00;;;;;37.37;74.93;99195.97;5091469;27;45358;-51
2023/08/02 08:48:22;;;;;;;;;1.20;0.00;;;;;38.81;87.63;99197.97;5085265;27;45462;-48
2023/08/02 08:50:49;;;;;;;;;0.00;0.00;;;;;40.45;86.11;99196.69;5081709;27;45496;-47
2023/08/02 08:53:21;;;;;;;;;0.00;0.00;;;;;41.90;84.29;99182.56;5084660;27;45751;-50
2023/08/02 08:55:49;;;;;;;;;0.00;0.00;;;;;42.95;65.77;99190.97;5077260;27;46872;-48
2023/08/02 08:58:15;;;;;;;;;0.00;0.00;;;;;43.69;73.50;99190.91;5087086;27;45376;-49
2023/08/02 09:00:42;;;;;;;;;0.00;0.00;;;;;44.51;60.44;99177.66;5092248;27;45450;-48
2023/08/02 09:03:08;;;;;;;;;0.00;0.00;;;;;45.08;50.73;99181.69;5083168;27;45548;-47
2023/08/02 09:05:34;;;;;;;;;0.00;0.00;;;;;45.40;59.88;99187.63;5076943;27;46080;-51
2023/08/02 09:08:00;;;;;;;;;0.00;0.00;;;;;46.21;58.58;99182.16;5092062;27;72566;-52
2023/08/02 09:10:28;;;;;;;;;0.00;0.00;;;;;46.72;51.48;99184.47;5093244;27;45652;-51
2023/08/02 09:12:53;;;;;;;;;0.00;0.00;;;;;45.75;50.07;99187.97;5087027;27;65159;-50
2023/08/02 09:15:19;;;;;;;;;0.00;0.00;;;;;43.97;36.52;99167.22;5090438;27;64169;-50
2023/08/02 09:17:49;;;;;;;;;0.00;0.00;;;;;41.44;44.62;99179.16;5085950;27;67028;-48
2023/08/02 09:20:15;;;;;;;;;0.00;0.00;;;;;39.93;46.26;99176.72;5084546;27;45538;-51
2023/08/02 09:22:41;;;;;;;;;0.00;0.00;;;;;38.82;42.97;99175.44;5086087;27;45382;-51
2023/08/02 09:25:11;;;;;;;;;0.00;0.00;;;;;37.33;40.24;99174.72;5096550;27;45364;-47
2023/08/02 09:27:37;;;;;;;;;0.00;0.00;;;;;36.56;48.21;99190.84;5079345;27;45494;-52
2023/08/02 09:30:03;;;;;;;;;0.00;0.00;;;;;37.01;48.75;99171.38;5088258;27;45555;-50
2023/08/02 09:32:28;;;;;;;;;0.00;0.00;;;;;36.79;47.19;99188.44;5089465;27;45636;-51
2023/08/02 09:34:56;;;;;;;;;0.00;0.00;;;;;36.58;47.22;99194.16;5090662;27;46076;-52
2023/08/02 09:37:32;;;;;;;;;0.00;0.00;;;;;37.68;44.31;99156.81;5098822;27;45419;-50
2023/08/02 09:39:58;;;;;;;;;0.00;0.00;;;;;39.08;43.11;99188.91;5085622;27;46288;-52
2023/08/02 09:42:25;;;;;;;;;0.00;0.00;;;;;40.48;41.65;99192.44;5091142;27;45429;-52
2023/08/02 09:45:09;;;;;;;;;0.00;0.00;;;;;41.87;28.05;99177.66;5087620;27;46121;-50
2023/08/02 09:47:34;;;;;;;;;0.00;0.00;;;;;42.18;29.45;99178.66;5073576;27;45457;-51
2023/08/02 09:50:11;;;;;;;;;0.00;0.00;;;;;42.77;32.48;99181.00;5081953;27;61635;-50
2023/08/02 09:52:38;;;;;;;;;0.00;0.00;;;;;43.34;32.58;99196.63;5087472;27;45651;-51
2023/08/02 09:55:04;;;;;;;;;0.40;0.00;;;;;43.87;32.51;99202.78;5094757;27;46198;-47
2023/08/02 09:57:30;;;;;;;;;0.00;0.00;;;;;44.13;26.01;99196.22;5094634;27;45429;-50
2023/08/02 10:00:00;;;;;;;;;0.00;0.00;;;;;44.58;29.57;99203.94;5086111;27;45441;-50
2023/08/02 10:02:26;;;;;;;;;0.00;0.00;;;;;44.80;29.23;99207.56;5093384;27;45380;-51
2023/08/02 10:04:56;;;;;;;;;0.00;0.00;;;;;44.94;25.30;99187.63;5092956;27;46982;-52
2023/08/02 10:07:24;;;;;;;;;0.00;0.00;;;;;45.02;25.90;99209.16;5100471;27;45378;-52
2023/08/02 10:09:52;;;;;;;;;0.00;0.00;;;;;45.24;27.89;99227.56;5061589;27;45377;-52
2023/08/02 10:12:18;;;;;;;;;0.00;0.00;;;;;45.20;27.42;99223.84;5096085;27;70217;-51
2023/08/02 10:14:43;;;;;;;;;0.00;0.00;;;;;45.24;27.30;99221.97;5079938;27;45754;-51
2023/08/02 10:17:10;;;;;;;;;0.75;0.00;;;;;45.31;24.00;99224.19;5079915;27;45951;-50
2023/08/02 10:19:35;;;;;;;;;0.00;0.00;;;;;45.29;27.36;99214.47;5093909;27;45641;-50
2023/08/02 10:22:04;;;;;;;;;0.00;0.00;;;;;45.09;26.15;99211.38;5074229;27;45587;-49
2023/08/02 10:24:29;;;;;;;;;0.00;0.00;;;;;44.81;25.53;99208.38;5090563;27;45407;-49
2023/08/02 10:26:56;;;;;;;;;0.50;0.00;;;;;44.31;24.50;99210.94;5093551;27;50297;-50
2023/08/02 10:29:23;;;;;;;;;0.00;0.00;;;;;44.14;25.15;99203.47;5090718;27;45762;-51
2023/08/02 10:31:48;;;;;;;;;0.00;0.00;;;;;43.58;22.98;99192.44;5092171;27;45523;-49
2023/08/02 10:34:36;;;;;;;;;0.00;0.00;;;;;43.38;25.18;99191.22;5078855;27;75513;-49
2023/08/02 10:37:02;;;;;;;;;0.00;0.00;;;;;43.16;19.84;99200.66;5095779;27;45604;-50
2023/08/02 10:39:45;;;;;;;;;0.00;0.00;;;;;41.80;25.74;99210.75;5090066;27;45618;-48
2023/08/02 10:42:12;;;;;;;;;0.00;0.00;;;;;41.65;25.59;99206.47;5093184;27;45664;-49
2023/08/02 10:44:57;;;;;;;;;0.00;0.00;;;;;42.09;25.88;99199.03;5092814;27;46289;-50
2023/08/02 10:47:26;;;;;;;;;1.20;0.00;;;;;42.29;26.14;99188.41;5085139;27;45798;-52
2023/08/02 10:49:52;;;;;;;;;0.20;0.00;;;;;42.25;26.33;99201.38;5088529;27;45422;-53
2023/08/02 10:52:38;;;;;;;;;0.00;0.00;;;;;41.23;25.76;99201.19;5094878;27;45398;-50
2023/08/02 10:55:15;;;;;;;;;0.00;0.00;;;;;40.92;26.49;99196.38;5088124;27;46219;-51
2023/08/02 10:58:05;;;;;;;;;0.20;0.20;;;;;41.01;26.48;99200.06;5096948;27;45645;-52
2023/08/02 11:00:32;;;;;;;;;0.00;0.00;;;;;40.88;25.99;99195.38;5081702;27;45418;-52
2023/08/02 11:02:58;;;;;;;;;0.75;0.75;;;;;40.85;24.17;99179.31;5093141;27;45613;-51
2023/08/02 11:05:44;;;;;;;;;0.00;0.00;;;;;40.63;23.92;99183.75;5072563;27;46758;-52
2023/08/02 11:08:10;;;;;;;;;0.00;0.00;;;;;40.42;22.99;99188.13;5081385;27;45681;-50
2023/08/02 11:10:46;;;;;;;;;1.00;0.00;;;;;40.07;23.57;99187.81;5106577;27;45385;-51
2023/08/02 11:13:11;;;;;;;;;0.00;0.00;;;;;39.80;22.60;99195.06;5095676;27;45372;-49
2023/08/02 11:15:37;;;;;;;;;0.00;0.00;;;;;39.74;25.51;99191.56;5085983;27;75553;-50
2023/08/02 11:18:03;;;;;;;;;0.00;0.00;;;;;39.07;23.82;99189.22;5061915;27;60817;-51
2023/08/02 11:20:31;;;;;;;;;0.00;0.00;;;;;38.41;23.37;99194.69;5089191;27;45677;-47
2023/08/02 11:22:57;;;;;;;;;0.00;0.00;;;;;37.37;25.05;99190.44;5081336;27;45379;-50